createdAt,value
2019-01-02T00:00:32.686Z,0.00
2019-01-02T00:01:31.404Z,0.00
2019-01-02T00:02:31.403Z,0.00
2019-01-02T00:03:31.400Z,0.00
2019-01-02T00:04:31.374Z,0.00
2019-01-02T00:05:31.361Z,0.00
2019-01-02T00:06:31.351Z,0.00
2019-01-02T00:07:31.345Z,0.00
2019-01-02T00:08:31.337Z,0.00
2019-01-02T00:09:31.341Z,0.00
2019-01-02T00:10:31.324Z,0.00
2019-01-02T00:11:31.303Z,0.00
2019-01-02T00:12:31.290Z,0.00
2019-01-02T00:13:31.282Z,0.00
2019-01-02T00:14:31.275Z,0.00
2019-01-02T00:15:31.283Z,0.00
2019-01-02T00:16:31.246Z,0.00
2019-01-02T00:17:31.278Z,0.00
2019-01-02T00:18:31.221Z,0.00
2019-01-02T00:19:31.216Z,0.00
2019-01-02T00:20:31.205Z,0.00
2019-01-02T00:21:31.194Z,0.00
2019-01-02T00:22:31.184Z,0.00
2019-01-02T00:23:31.181Z,0.00
2019-01-02T00:24:31.163Z,0.00
2019-01-02T00:25:31.151Z,0.00
2019-01-02T00:26:31.136Z,0.00
2019-01-02T00:27:31.130Z,0.00
2019-01-02T00:28:31.124Z,0.00
2019-01-02T00:29:31.113Z,0.00
2019-01-02T00:30:31.099Z,0.00
2019-01-02T00:31:31.094Z,0.00
2019-01-02T00:32:31.076Z,0.00
2019-01-02T00:33:31.070Z,0.00
2019-01-02T00:34:31.051Z,0.00
2019-01-02T00:35:31.039Z,0.00
2019-01-02T00:36:31.030Z,0.00
2019-01-02T00:37:31.017Z,0.00
2019-01-02T00:38:31.019Z,0.00
2019-01-02T00:39:31.011Z,0.00
2019-01-02T00:40:30.992Z,0.00
2019-01-02T00:41:30.979Z,0.00
2019-01-02T00:42:30.975Z,0.00
2019-01-02T00:43:30.964Z,0.00
2019-01-02T00:44:30.941Z,0.00
2019-01-02T00:45:30.940Z,0.00
2019-01-02T00:46:30.925Z,0.00
2019-01-02T00:47:30.918Z,0.00
2019-01-02T00:48:30.904Z,0.00
2019-01-02T00:49:30.901Z,0.00
2019-01-02T00:50:30.893Z,0.00
2019-01-02T00:51:30.867Z,0.00
2019-01-02T00:52:30.855Z,0.00
2019-01-02T00:53:30.853Z,0.00
2019-01-02T00:54:30.835Z,0.00
2019-01-02T00:55:30.830Z,0.00
2019-01-02T00:56:30.827Z,0.00
2019-01-02T00:57:30.804Z,0.00
2019-01-02T00:58:30.805Z,0.00
2019-01-02T00:59:30.790Z,0.00
2019-01-02T01:00:30.780Z,0.00
2019-01-02T01:01:30.767Z,0.00
2019-01-02T01:02:30.760Z,0.00
2019-01-02T01:03:30.743Z,0.00
2019-01-02T01:04:30.736Z,0.00
2019-01-02T01:05:30.721Z,0.00
2019-01-02T01:06:30.709Z,0.00
2019-01-02T01:07:30.705Z,0.00
2019-01-02T01:08:30.689Z,0.00
2019-01-02T01:09:30.671Z,0.00
2019-01-02T01:10:30.669Z,0.00
2019-01-02T01:11:30.656Z,0.00
2019-01-02T01:12:30.653Z,0.00
2019-01-02T01:13:30.631Z,0.00
2019-01-02T01:14:30.624Z,0.00
2019-01-02T01:15:30.616Z,0.00
2019-01-02T01:16:30.610Z,0.00
2019-01-02T01:17:30.591Z,0.00
2019-01-02T01:18:30.583Z,0.00
2019-01-02T01:19:30.565Z,0.00
2019-01-02T01:20:30.560Z,0.00
2019-01-02T01:21:30.556Z,0.00
2019-01-02T01:22:30.538Z,0.00
2019-01-02T01:23:30.561Z,0.00
2019-01-02T01:24:30.514Z,0.00
2019-01-02T01:25:30.499Z,0.00
2019-01-02T01:26:30.494Z,0.00
2019-01-02T01:27:30.484Z,0.00
2019-01-02T01:28:30.473Z,0.00
2019-01-02T01:29:30.481Z,0.00
2019-01-02T01:30:30.452Z,0.00
2019-01-02T01:31:30.447Z,0.00
2019-01-02T01:32:30.424Z,0.00
2019-01-02T01:33:30.412Z,0.00
2019-01-02T01:34:30.417Z,0.00
2019-01-02T01:35:30.405Z,0.00
2019-01-02T01:36:30.381Z,0.00
2019-01-02T01:37:30.377Z,0.00
2019-01-02T01:38:30.363Z,0.00
2019-01-02T01:39:30.359Z,0.00
2019-01-02T01:40:30.379Z,0.00
2019-01-02T01:41:30.329Z,0.00
2019-01-02T01:42:30.319Z,0.00
2019-01-02T01:43:30.312Z,0.00
2019-01-02T01:44:30.302Z,0.00
2019-01-02T01:45:30.288Z,0.00
2019-01-02T01:46:30.319Z,0.00
2019-01-02T01:47:30.267Z,0.00
2019-01-02T01:48:30.258Z,0.00
2019-01-02T01:49:30.252Z,0.00
2019-01-02T01:50:30.230Z,0.00
2019-01-02T01:51:30.228Z,0.00
2019-01-02T01:52:30.223Z,0.00
2019-01-02T01:53:30.238Z,0.00
2019-01-02T01:54:30.190Z,0.00
2019-01-02T01:55:30.184Z,0.00
2019-01-02T01:56:30.170Z,0.00
2019-01-02T01:57:30.169Z,0.00
2019-01-02T01:58:30.150Z,0.00
2019-01-02T01:59:30.149Z,0.00
2019-01-02T02:00:30.129Z,0.00
2019-01-02T02:01:30.121Z,0.00
2019-01-02T02:02:30.133Z,0.00
2019-01-02T02:03:30.091Z,0.00
2019-01-02T02:04:30.079Z,0.00
2019-01-02T02:05:30.070Z,0.00
2019-01-02T02:06:30.061Z,0.00
2019-01-02T02:07:30.047Z,0.00
2019-01-02T02:08:30.051Z,0.00
2019-01-02T02:09:30.026Z,0.00
2019-01-02T02:10:30.016Z,0.00
2019-01-02T02:11:30.009Z,0.00
2019-01-02T02:12:30.001Z,0.00
2019-01-02T02:13:30.034Z,0.00
2019-01-02T02:14:29.974Z,0.00
2019-01-02T02:15:29.965Z,0.00
2019-01-02T02:16:29.956Z,0.00
2019-01-02T02:17:29.946Z,0.00
2019-01-02T02:18:29.977Z,0.00
2019-01-02T02:19:29.923Z,0.00
2019-01-02T02:20:29.908Z,0.00
2019-01-02T02:21:29.908Z,0.00
2019-01-02T02:22:29.894Z,0.00
2019-01-02T02:23:29.885Z,0.00
2019-01-02T02:24:29.876Z,0.00
2019-01-02T02:25:29.859Z,0.00
2019-01-02T02:26:29.844Z,0.00
2019-01-02T02:27:29.832Z,0.00
2019-01-02T02:28:29.823Z,0.00
2019-01-02T02:29:29.822Z,0.00
2019-01-02T02:30:29.813Z,0.00
2019-01-02T02:31:29.799Z,0.00
2019-01-02T02:32:29.785Z,0.00
2019-01-02T02:33:29.769Z,0.00
2019-01-02T02:34:29.769Z,0.00
2019-01-02T02:35:29.753Z,0.00
2019-01-02T02:36:29.741Z,0.00
2019-01-02T02:37:29.724Z,0.00
2019-01-02T02:38:29.718Z,0.00
2019-01-02T02:39:29.722Z,0.00
2019-01-02T02:40:29.696Z,0.00
2019-01-02T02:41:29.687Z,0.00
2019-01-02T02:42:29.673Z,0.00
2019-01-02T02:43:29.680Z,0.00
2019-01-02T02:44:29.671Z,0.00
2019-01-02T02:45:29.645Z,0.00
2019-01-02T02:46:29.628Z,0.00
2019-01-02T02:47:29.616Z,0.00
2019-01-02T02:48:29.605Z,0.00
2019-01-02T02:49:29.597Z,0.00
2019-01-02T02:50:29.657Z,0.00
2019-01-02T02:51:29.576Z,0.00
2019-01-02T02:52:29.579Z,0.00
2019-01-02T02:53:29.558Z,0.00
2019-01-02T02:54:29.542Z,0.00
2019-01-02T02:55:29.558Z,0.00
2019-01-02T02:56:29.530Z,0.00
2019-01-02T02:57:29.515Z,0.00
2019-01-02T02:58:29.503Z,0.00
2019-01-02T02:59:29.488Z,0.00
2019-01-02T03:00:29.482Z,0.00
2019-01-02T03:01:29.484Z,0.00
2019-01-02T03:02:29.461Z,0.00
2019-01-02T03:03:37.307Z,0.00
2019-01-02T03:04:29.443Z,0.00
2019-01-02T03:05:29.429Z,0.00
2019-01-02T03:06:29.429Z,0.00
2019-01-02T03:07:29.405Z,0.00
2019-01-02T03:08:29.397Z,0.00
2019-01-02T03:09:29.386Z,0.00
2019-01-02T03:10:29.369Z,0.00
2019-01-02T03:11:29.372Z,0.00
2019-01-02T03:12:29.353Z,0.00
2019-01-02T03:13:29.377Z,0.00
2019-01-02T03:14:29.327Z,0.00
2019-01-02T03:15:29.318Z,0.00
2019-01-02T03:16:29.312Z,0.00
2019-01-02T03:17:29.299Z,0.00
2019-01-02T03:18:29.295Z,0.00
2019-01-02T03:19:29.288Z,0.00
2019-01-02T03:20:29.263Z,0.00
2019-01-02T03:21:29.252Z,0.00
2019-01-02T03:22:29.245Z,0.00
2019-01-02T03:23:29.235Z,0.00
2019-01-02T03:24:29.239Z,0.00
2019-01-02T03:25:29.208Z,0.00
2019-01-02T03:26:29.207Z,0.00
2019-01-02T03:27:29.186Z,0.00
2019-01-02T03:28:29.180Z,0.00
2019-01-02T03:29:29.201Z,0.00
2019-01-02T03:30:29.155Z,0.00
2019-01-02T03:31:29.145Z,0.00
2019-01-02T03:32:29.134Z,0.00
2019-01-02T03:33:29.129Z,0.00
2019-01-02T03:34:29.117Z,0.00
2019-01-02T03:35:29.126Z,0.00
2019-01-02T03:36:29.090Z,0.00
2019-01-02T03:37:29.083Z,0.00
2019-01-02T03:38:29.068Z,0.00
2019-01-02T03:39:29.056Z,0.00
2019-01-02T03:40:29.051Z,0.00
2019-01-02T03:41:29.061Z,0.00
2019-01-02T03:42:29.027Z,0.00
2019-01-02T03:43:29.020Z,0.00
2019-01-02T03:44:29.003Z,0.00
2019-01-02T03:45:28.999Z,0.00
2019-01-02T03:46:29.000Z,0.00
2019-01-02T03:47:28.973Z,0.00
2019-01-02T03:48:28.966Z,0.00
2019-01-02T03:49:28.951Z,0.00
2019-01-02T03:50:28.942Z,0.00
2019-01-02T03:51:28.981Z,0.00
2019-01-02T03:52:28.931Z,0.00
2019-01-02T03:53:28.912Z,0.00
2019-01-02T03:54:28.901Z,0.00
2019-01-02T03:55:28.890Z,0.00
2019-01-02T03:56:28.876Z,0.00
2019-01-02T03:57:28.905Z,0.00
2019-01-02T03:58:28.853Z,0.00
2019-01-02T03:59:28.846Z,0.00
2019-01-02T04:00:28.834Z,0.00
2019-01-02T04:01:28.826Z,0.00
2019-01-02T04:02:28.835Z,0.00
2019-01-02T04:03:28.801Z,0.00
2019-01-02T04:04:28.790Z,0.00
2019-01-02T04:05:28.783Z,0.00
2019-01-02T04:06:28.775Z,0.00
2019-01-02T04:07:28.761Z,0.00
2019-01-02T04:08:28.791Z,0.00
2019-01-02T04:09:28.740Z,0.00
2019-01-02T04:10:28.729Z,0.00
2019-01-02T04:11:28.719Z,0.00
2019-01-02T04:12:28.703Z,0.00
2019-01-02T04:13:28.703Z,0.00
2019-01-02T04:14:28.710Z,0.00
2019-01-02T04:15:28.676Z,0.00
2019-01-02T04:16:28.661Z,0.00
2019-01-02T04:17:28.654Z,0.00
2019-01-02T04:18:28.644Z,0.00
2019-01-02T04:19:28.627Z,0.00
2019-01-02T04:20:28.625Z,0.00
2019-01-02T04:21:28.611Z,0.00
2019-01-02T04:22:28.600Z,0.00
2019-01-02T04:23:28.591Z,0.00
2019-01-02T04:24:28.576Z,0.00
2019-01-02T04:25:28.579Z,0.00
2019-01-02T04:26:28.598Z,0.00
2019-01-02T04:27:28.543Z,0.00
2019-01-02T04:28:28.539Z,0.00
2019-01-02T04:29:28.530Z,0.00
2019-01-02T04:30:28.518Z,0.00
2019-01-02T04:31:28.502Z,0.00
2019-01-02T04:32:28.509Z,0.00
2019-01-02T04:33:28.496Z,0.00
2019-01-02T04:34:28.470Z,0.00
2019-01-02T04:35:28.459Z,0.00
2019-01-02T04:36:28.456Z,0.00
2019-01-02T04:37:28.455Z,0.00
2019-01-02T04:38:28.428Z,0.00
2019-01-02T04:39:28.418Z,0.00
2019-01-02T04:40:28.414Z,0.00
2019-01-02T04:41:28.410Z,0.00
2019-01-02T04:42:28.387Z,0.00
2019-01-02T04:43:28.387Z,0.00
2019-01-02T04:44:28.364Z,0.00
2019-01-02T04:45:28.353Z,0.00
2019-01-02T04:46:28.354Z,0.00
2019-01-02T04:47:28.341Z,0.00
2019-01-02T04:48:28.321Z,0.00
2019-01-02T04:49:28.315Z,0.00
2019-01-02T04:50:28.300Z,0.00
2019-01-02T04:51:28.304Z,0.00
2019-01-02T04:52:28.288Z,0.00
2019-01-02T04:53:28.274Z,0.00
2019-01-02T04:54:28.256Z,0.00
2019-01-02T04:55:28.246Z,0.00
2019-01-02T04:56:28.283Z,0.00
2019-01-02T04:57:28.230Z,0.00
2019-01-02T04:58:28.221Z,0.00
2019-01-02T04:59:28.210Z,0.00
2019-01-02T05:00:28.230Z,0.00
2019-01-02T05:01:28.184Z,0.00
2019-01-02T05:02:28.182Z,0.00
2019-01-02T05:03:28.176Z,0.00
2019-01-02T05:04:28.154Z,0.00
2019-01-02T05:05:28.141Z,0.00
2019-01-02T05:06:28.135Z,0.00
2019-01-02T05:07:28.128Z,0.00
2019-01-02T05:08:28.113Z,0.00
2019-01-02T05:09:28.125Z,0.00
2019-01-02T05:10:28.092Z,0.00
2019-01-02T05:11:28.081Z,0.00
2019-01-02T05:12:28.067Z,0.00
2019-01-02T05:13:28.062Z,0.00
2019-01-02T05:14:28.042Z,0.00
2019-01-02T05:15:28.041Z,0.00
2019-01-02T05:16:28.021Z,0.00
2019-01-02T05:17:28.013Z,0.00
2019-01-02T05:18:28.023Z,0.00
2019-01-02T05:19:27.988Z,0.00
2019-01-02T05:20:27.978Z,0.00
2019-01-02T05:21:27.966Z,0.00
2019-01-02T05:22:27.960Z,0.00
2019-01-02T05:23:27.943Z,0.00
2019-01-02T05:24:27.945Z,0.00
2019-01-02T05:25:27.928Z,0.00
2019-01-02T05:26:27.913Z,0.00
2019-01-02T05:27:27.903Z,0.00
2019-01-02T05:28:27.908Z,0.00
2019-01-02T05:29:27.893Z,0.00
2019-01-02T05:30:27.869Z,0.00
2019-01-02T05:31:27.876Z,0.00
2019-01-02T05:32:27.848Z,0.00
2019-01-02T05:33:27.843Z,0.00
2019-01-02T05:34:27.843Z,0.00
2019-01-02T05:35:27.815Z,0.00
2019-01-02T05:36:27.804Z,0.00
2019-01-02T05:37:27.812Z,0.00
2019-01-02T05:38:27.783Z,0.00
2019-01-02T05:39:27.777Z,0.00
2019-01-02T05:40:27.765Z,0.00
2019-01-02T05:41:27.750Z,0.00
2019-01-02T05:42:27.743Z,0.00
2019-01-02T05:43:27.742Z,0.00
2019-01-02T05:44:27.719Z,0.00
2019-01-02T05:45:27.707Z,0.00
2019-01-02T05:46:27.702Z,0.00
2019-01-02T05:47:27.690Z,0.00
2019-01-02T05:48:27.720Z,0.00
2019-01-02T05:49:27.665Z,0.00
2019-01-02T05:50:27.657Z,0.00
2019-01-02T05:51:27.647Z,0.00
2019-01-02T05:52:27.635Z,0.00
2019-01-02T05:53:27.630Z,0.00
2019-01-02T05:54:27.626Z,0.00
2019-01-02T05:55:27.598Z,0.00
2019-01-02T05:56:27.593Z,0.00
2019-01-02T05:57:27.584Z,0.00
2019-01-02T05:58:27.569Z,0.00
2019-01-02T05:59:27.576Z,0.00
2019-01-02T06:00:27.555Z,0.00
2019-01-02T06:01:27.542Z,0.00
2019-01-02T06:02:27.528Z,0.00
2019-01-02T06:03:27.518Z,0.00
2019-01-02T06:04:27.541Z,0.00
2019-01-02T06:05:27.500Z,0.00
2019-01-02T06:06:27.485Z,0.00
2019-01-02T06:07:27.476Z,0.00
2019-01-02T06:08:27.461Z,0.00
2019-01-02T06:09:27.447Z,0.00
2019-01-02T06:10:27.550Z,0.00
2019-01-02T06:11:27.432Z,0.00
2019-01-02T06:12:27.416Z,0.00
2019-01-02T06:13:27.404Z,0.00
2019-01-02T06:14:27.400Z,0.00
2019-01-02T06:15:27.389Z,0.00
2019-01-02T06:16:27.390Z,0.00
2019-01-02T06:17:27.362Z,0.00
2019-01-02T06:18:27.355Z,0.00
2019-01-02T06:19:27.345Z,0.00
2019-01-02T06:20:27.358Z,0.00
2019-01-02T06:21:27.324Z,0.00
2019-01-02T06:22:27.316Z,0.00
2019-01-02T06:23:27.302Z,0.00
2019-01-02T06:24:27.286Z,0.00
2019-01-02T06:25:27.277Z,0.00
2019-01-02T06:26:27.279Z,0.00
2019-01-02T06:27:27.297Z,0.00
2019-01-02T06:28:27.249Z,0.00
2019-01-02T06:29:27.234Z,0.00
2019-01-02T06:30:27.223Z,0.00
2019-01-02T06:31:27.214Z,0.00
2019-01-02T06:32:27.206Z,0.00
2019-01-02T06:33:27.204Z,0.00
2019-01-02T06:34:27.183Z,0.00
2019-01-02T06:35:27.175Z,0.00
2019-01-02T06:36:27.241Z,0.00
2019-01-02T06:37:27.207Z,0.00
2019-01-02T06:38:27.141Z,0.00
2019-01-02T06:39:27.128Z,0.00
2019-01-02T06:40:27.123Z,0.00
2019-01-02T06:41:27.106Z,0.00
2019-01-02T06:42:27.098Z,0.00
2019-01-02T06:43:27.098Z,0.00
2019-01-02T06:44:27.087Z,0.00
2019-01-02T06:45:27.063Z,0.00
2019-01-02T06:46:27.060Z,0.00
2019-01-02T06:47:27.041Z,0.00
2019-01-02T06:48:27.064Z,0.00
2019-01-02T06:49:27.024Z,0.00
2019-01-02T06:50:27.017Z,0.00
2019-01-02T06:51:27.007Z,0.00
2019-01-02T06:52:26.993Z,0.00
2019-01-02T06:53:26.983Z,0.00
2019-01-02T06:54:27.006Z,0.00
2019-01-02T06:55:26.974Z,0.00
2019-01-02T06:56:26.950Z,0.00
2019-01-02T06:57:26.942Z,0.00
2019-01-02T06:58:26.923Z,0.00
2019-01-02T06:59:26.916Z,0.00
2019-01-02T07:00:26.946Z,0.00
2019-01-02T07:01:26.891Z,0.00
2019-01-02T07:02:26.888Z,0.00
2019-01-02T07:03:26.878Z,0.00
2019-01-02T07:04:26.872Z,0.00
2019-01-02T07:05:26.868Z,0.00
2019-01-02T07:06:26.869Z,0.00
2019-01-02T07:07:31.224Z,0.00
2019-01-02T07:08:26.822Z,0.00
2019-01-02T07:09:26.812Z,0.00
2019-01-02T07:10:26.803Z,0.00
2019-01-02T07:11:26.785Z,0.00
2019-01-02T07:12:26.783Z,0.00
2019-01-02T07:13:26.764Z,0.00
2019-01-02T07:14:26.792Z,0.00
2019-01-02T07:15:26.745Z,0.00
2019-01-02T07:16:26.732Z,0.00
2019-01-02T07:17:26.722Z,0.00
2019-01-02T07:18:26.718Z,0.00
2019-01-02T07:19:26.702Z,0.00
2019-01-02T07:20:26.703Z,0.00
2019-01-02T07:21:26.678Z,0.00
2019-01-02T07:22:26.709Z,0.00
2019-01-02T07:23:26.658Z,0.00
2019-01-02T07:24:26.649Z,0.00
2019-01-02T07:25:26.641Z,0.00
2019-01-02T07:26:26.631Z,0.00
2019-01-02T07:27:26.622Z,0.00
2019-01-02T07:28:26.651Z,0.00
2019-01-02T07:29:26.601Z,0.00
2019-01-02T07:30:26.582Z,5.62
2019-01-02T07:31:26.576Z,5.62
2019-01-02T07:32:26.567Z,5.62
2019-01-02T07:33:26.552Z,5.62
2019-01-02T07:34:26.552Z,5.62
2019-01-02T07:35:26.541Z,5.62
2019-01-02T07:36:26.524Z,5.62
2019-01-02T07:37:27.042Z,5.62
2019-01-02T07:38:26.502Z,5.62
2019-01-02T07:39:26.487Z,5.62
2019-01-02T07:40:26.493Z,5.62
2019-01-02T07:41:26.470Z,5.62
2019-01-02T07:42:26.454Z,5.62
2019-01-02T07:43:26.448Z,5.62
2019-01-02T07:44:29.323Z,5.62
2019-01-02T07:45:26.423Z,5.62
2019-01-02T07:46:26.427Z,5.62
2019-01-02T07:47:26.408Z,5.62
2019-01-02T07:48:26.393Z,5.62
2019-01-02T07:49:26.385Z,5.62
2019-01-02T07:50:26.372Z,5.62
2019-01-02T07:51:26.399Z,5.62
2019-01-02T07:52:26.348Z,5.62
2019-01-02T07:53:26.339Z,11.25
2019-01-02T07:54:26.327Z,11.25
2019-01-02T07:55:26.316Z,11.25
2019-01-02T07:56:26.312Z,11.25
2019-01-02T07:57:26.304Z,11.25
2019-01-02T07:58:26.290Z,11.25
2019-01-02T07:59:26.279Z,11.25
2019-01-02T08:00:26.270Z,11.25
2019-01-02T08:01:26.253Z,11.25
2019-01-02T08:02:26.262Z,11.25
2019-01-02T08:03:26.237Z,11.25
2019-01-02T08:04:26.228Z,11.25
2019-01-02T08:05:26.211Z,11.25
2019-01-02T08:06:26.201Z,11.25
2019-01-02T08:07:26.190Z,11.25
2019-01-02T08:08:26.190Z,16.88
2019-01-02T08:09:26.176Z,16.88
2019-01-02T08:10:27.410Z,16.88
2019-01-02T08:11:26.153Z,16.88
2019-01-02T08:12:26.135Z,16.88
2019-01-02T08:13:26.129Z,16.88
2019-01-02T08:14:26.127Z,16.88
2019-01-02T08:15:26.109Z,16.88
2019-01-02T08:16:26.099Z,16.88
2019-01-02T08:17:26.091Z,16.88
2019-01-02T08:18:26.072Z,16.88
2019-01-02T08:19:26.079Z,16.88
2019-01-02T08:20:26.091Z,16.88
2019-01-02T08:21:26.049Z,16.88
2019-01-02T08:22:26.031Z,16.88
2019-01-02T08:23:26.019Z,16.88
2019-01-02T08:24:26.008Z,16.88
2019-01-02T08:25:26.004Z,16.88
2019-01-02T08:26:25.995Z,16.88
2019-01-02T08:27:25.975Z,16.88
2019-01-02T08:28:25.967Z,22.50
2019-01-02T08:29:25.960Z,22.50
2019-01-02T08:30:25.983Z,28.12
2019-01-02T08:31:25.938Z,28.12
2019-01-02T08:32:25.932Z,28.12
2019-01-02T08:33:25.918Z,28.12
2019-01-02T08:34:25.902Z,28.12
2019-01-02T08:35:25.891Z,22.50
2019-01-02T08:36:25.901Z,22.50
2019-01-02T08:37:25.871Z,28.12
2019-01-02T08:38:25.859Z,33.75
2019-01-02T08:39:25.848Z,28.12
2019-01-02T08:40:25.843Z,33.75
2019-01-02T08:41:25.860Z,33.75
2019-01-02T08:42:25.822Z,33.75
2019-01-02T08:43:25.805Z,33.75
2019-01-02T08:44:25.795Z,33.75
2019-01-02T08:45:25.794Z,33.75
2019-01-02T08:46:25.777Z,33.75
2019-01-02T08:47:25.772Z,33.75
2019-01-02T08:48:25.761Z,39.38
2019-01-02T08:49:25.741Z,39.38
2019-01-02T08:50:25.739Z,39.38
2019-01-02T08:51:25.726Z,45.00
2019-01-02T08:52:25.724Z,45.00
2019-01-02T08:53:25.754Z,45.00
2019-01-02T08:54:25.688Z,45.00
2019-01-02T08:55:25.686Z,39.38
2019-01-02T08:56:25.678Z,33.75
2019-01-02T08:57:25.697Z,28.12
2019-01-02T08:58:25.646Z,28.12
2019-01-02T08:59:25.661Z,33.75
2019-01-02T09:00:25.630Z,33.75
2019-01-02T09:01:25.613Z,39.38
2019-01-02T09:02:25.607Z,33.75
2019-01-02T09:03:25.607Z,28.12
2019-01-02T09:04:25.587Z,28.12
2019-01-02T09:05:25.570Z,28.12
2019-01-02T09:06:25.565Z,22.50
2019-01-02T09:07:25.604Z,16.88
2019-01-02T09:08:25.577Z,16.88
2019-01-02T09:09:25.538Z,16.88
2019-01-02T09:10:25.523Z,16.88
2019-01-02T09:11:25.513Z,11.25
2019-01-02T09:12:25.501Z,5.62
2019-01-02T09:13:25.487Z,5.62
2019-01-02T09:14:25.490Z,11.25
2019-01-02T09:15:25.465Z,16.88
2019-01-02T09:16:25.455Z,16.88
2019-01-02T09:17:25.451Z,16.88
2019-01-02T09:18:25.440Z,11.25
2019-01-02T09:19:25.435Z,11.25
2019-01-02T09:20:25.415Z,5.62
2019-01-02T09:21:25.406Z,5.62
2019-01-02T09:22:25.391Z,11.25
2019-01-02T09:23:25.426Z,16.88
2019-01-02T09:24:25.374Z,16.88
2019-01-02T09:25:25.362Z,16.88
2019-01-02T09:26:25.352Z,28.12
2019-01-02T09:27:25.340Z,39.38
2019-01-02T09:28:25.332Z,45.00
2019-01-02T09:29:25.333Z,56.25
2019-01-02T09:30:25.311Z,67.50
2019-01-02T09:31:25.294Z,56.25
2019-01-02T09:32:25.293Z,61.88
2019-01-02T09:33:25.297Z,67.50
2019-01-02T09:34:25.267Z,67.50
2019-01-02T09:35:25.249Z,67.50
2019-01-02T09:36:25.239Z,56.25
2019-01-02T09:37:25.234Z,39.38
2019-01-02T09:38:25.228Z,39.38
2019-01-02T09:39:25.216Z,39.38
2019-01-02T09:40:25.205Z,39.38
2019-01-02T09:41:25.227Z,56.25
2019-01-02T09:42:25.182Z,45.00
2019-01-02T09:43:25.227Z,39.38
2019-01-02T09:44:25.165Z,33.75
2019-01-02T09:45:25.144Z,33.75
2019-01-02T09:46:25.181Z,33.75
2019-01-02T09:47:25.180Z,28.12
2019-01-02T09:48:25.110Z,39.38
2019-01-02T09:49:25.106Z,45.00
2019-01-02T09:50:25.091Z,50.62
2019-01-02T09:51:25.088Z,50.62
2019-01-02T09:52:25.100Z,45.00
2019-01-02T09:53:25.059Z,45.00
2019-01-02T09:54:25.046Z,45.00
2019-01-02T09:55:25.044Z,45.00
2019-01-02T09:56:25.025Z,45.00
2019-01-02T09:57:25.025Z,45.00
2019-01-02T09:58:25.013Z,45.00
2019-01-02T09:59:24.997Z,50.62
2019-01-02T10:00:24.988Z,50.62
2019-01-02T10:01:24.976Z,56.25
2019-01-02T10:02:24.972Z,61.88
2019-01-02T10:03:24.950Z,61.88
2019-01-02T10:04:24.942Z,67.50
2019-01-02T10:05:24.943Z,61.88
2019-01-02T10:06:24.924Z,67.50
2019-01-02T10:07:24.922Z,67.50
2019-01-02T10:08:24.938Z,67.50
2019-01-02T10:09:24.894Z,67.50
2019-01-02T10:10:24.877Z,67.50
2019-01-02T10:11:24.871Z,56.25
2019-01-02T10:12:24.861Z,45.00
2019-01-02T10:13:24.845Z,50.62
2019-01-02T10:14:24.856Z,61.88
2019-01-02T10:15:24.823Z,61.88
2019-01-02T10:16:24.821Z,67.50
2019-01-02T10:17:24.801Z,73.12
2019-01-02T10:18:24.794Z,90.00
2019-01-02T10:19:24.848Z,84.38
2019-01-02T10:20:24.771Z,84.38
2019-01-02T10:21:24.759Z,95.62
2019-01-02T10:22:24.747Z,106.88
2019-01-02T10:23:24.739Z,112.50
2019-01-02T10:24:24.737Z,118.12
2019-01-02T10:25:24.766Z,123.75
2019-01-02T10:26:24.716Z,118.12
2019-01-02T10:27:24.696Z,123.75
2019-01-02T10:28:24.684Z,129.38
2019-01-02T10:29:24.683Z,123.75
2019-01-02T10:30:24.661Z,129.38
2019-01-02T10:31:24.668Z,129.38
2019-01-02T10:32:24.646Z,135.00
2019-01-02T10:33:24.629Z,140.62
2019-01-02T10:34:24.625Z,140.62
2019-01-02T10:35:24.614Z,146.25
2019-01-02T10:36:24.607Z,146.25
2019-01-02T10:37:24.591Z,157.50
2019-01-02T10:38:24.582Z,163.12
2019-01-02T10:39:24.571Z,168.75
2019-01-02T10:40:24.556Z,168.75
2019-01-02T10:41:24.554Z,180.00
2019-01-02T10:42:24.544Z,185.62
2019-01-02T10:43:24.542Z,185.62
2019-01-02T10:44:24.517Z,191.25
2019-01-02T10:45:24.501Z,196.88
2019-01-02T10:46:24.501Z,185.62
2019-01-02T10:47:24.500Z,180.00
2019-01-02T10:48:24.473Z,191.25
2019-01-02T10:49:24.458Z,180.00
2019-01-02T10:50:24.454Z,168.75
2019-01-02T10:51:24.435Z,174.38
2019-01-02T10:52:24.565Z,168.75
2019-01-02T10:53:24.415Z,163.12
2019-01-02T10:54:24.422Z,163.12
2019-01-02T10:55:24.407Z,168.75
2019-01-02T10:56:24.388Z,168.75
2019-01-02T10:57:24.377Z,168.75
2019-01-02T10:58:24.369Z,168.75
2019-01-02T10:59:24.355Z,168.75
2019-01-02T11:00:24.355Z,163.12
2019-01-02T11:01:24.330Z,163.12
2019-01-02T11:02:24.345Z,157.50
2019-01-02T11:03:24.317Z,151.88
2019-01-02T11:04:24.303Z,151.88
2019-01-02T11:05:24.292Z,157.50
2019-01-02T11:06:24.278Z,163.12
2019-01-02T11:07:24.322Z,174.38
2019-01-02T11:08:24.255Z,168.75
2019-01-02T11:09:24.249Z,174.38
2019-01-02T11:10:24.238Z,168.75
2019-01-02T11:11:24.228Z,163.12
2019-01-02T11:12:24.210Z,151.88
2019-01-02T11:13:24.214Z,140.62
2019-01-02T11:14:24.208Z,129.38
2019-01-02T11:15:24.209Z,146.25
2019-01-02T11:16:24.182Z,191.25
2019-01-02T11:17:24.160Z,129.38
2019-01-02T11:18:24.148Z,106.88
2019-01-02T11:19:24.140Z,101.25
2019-01-02T11:20:24.138Z,106.88
2019-01-02T11:21:24.119Z,202.50
2019-01-02T11:22:24.119Z,191.25
2019-01-02T11:23:24.104Z,213.75
2019-01-02T11:24:24.087Z,275.62
2019-01-02T11:25:24.078Z,264.38
2019-01-02T11:26:24.074Z,258.75
2019-01-02T11:27:24.065Z,202.50
2019-01-02T11:28:24.048Z,129.38
2019-01-02T11:29:24.029Z,146.25
2019-01-02T11:30:24.016Z,298.12
2019-01-02T11:31:24.056Z,95.62
2019-01-02T11:32:24.000Z,78.75
2019-01-02T11:33:23.987Z,67.50
2019-01-02T11:34:23.972Z,67.50
2019-01-02T11:35:23.967Z,78.75
2019-01-02T11:36:23.951Z,95.62
2019-01-02T11:37:23.979Z,106.88
2019-01-02T11:38:23.935Z,95.62
2019-01-02T11:39:23.924Z,95.62
2019-01-02T11:40:23.916Z,146.25
2019-01-02T11:41:23.929Z,101.25
2019-01-02T11:42:23.889Z,106.88
2019-01-02T11:43:23.889Z,118.12
2019-01-02T11:44:23.866Z,129.38
2019-01-02T11:45:24.587Z,140.62
2019-01-02T11:46:23.862Z,112.50
2019-01-02T11:47:23.839Z,112.50
2019-01-02T11:48:23.849Z,123.75
2019-01-02T11:49:23.813Z,101.25
2019-01-02T11:50:23.812Z,118.12
2019-01-02T11:51:23.791Z,140.62
2019-01-02T11:52:23.789Z,163.12
2019-01-02T11:53:23.783Z,168.75
2019-01-02T11:54:23.758Z,151.88
2019-01-02T11:55:23.749Z,118.12
2019-01-02T11:56:23.742Z,140.62
2019-01-02T11:57:23.725Z,140.62
2019-01-02T11:58:23.728Z,101.25
2019-01-02T11:59:23.714Z,118.12
2019-01-02T12:00:23.699Z,123.75
2019-01-02T12:01:23.689Z,90.00
2019-01-02T12:02:23.673Z,101.25
2019-01-02T12:03:23.661Z,73.12
2019-01-02T12:04:23.669Z,67.50
2019-01-02T12:05:23.643Z,73.12
2019-01-02T12:06:23.629Z,101.25
2019-01-02T12:07:23.624Z,174.38
2019-01-02T12:08:23.610Z,438.75
2019-01-02T12:09:23.611Z,151.88
2019-01-02T12:10:23.600Z,106.88
2019-01-02T12:11:23.582Z,202.50
2019-01-02T12:12:23.629Z,410.62
2019-01-02T12:13:23.555Z,444.38
2019-01-02T12:14:23.549Z,348.75
2019-01-02T12:15:23.538Z,646.88
2019-01-02T12:16:23.522Z,618.75
2019-01-02T12:17:23.516Z,708.75
2019-01-02T12:18:23.511Z,742.50
2019-01-02T12:19:23.495Z,725.62
2019-01-02T12:20:23.484Z,708.75
2019-01-02T12:21:23.468Z,720.00
2019-01-02T12:22:23.473Z,742.50
2019-01-02T12:23:23.480Z,703.12
2019-01-02T12:24:23.437Z,652.50
2019-01-02T12:25:23.425Z,691.88
2019-01-02T12:26:23.421Z,703.12
2019-01-02T12:27:23.415Z,691.88
2019-01-02T12:28:23.400Z,708.75
2019-01-02T12:29:23.404Z,686.25
2019-01-02T12:30:23.380Z,691.88
2019-01-02T12:31:23.359Z,714.38
2019-01-02T12:32:23.354Z,686.25
2019-01-02T12:33:23.338Z,624.38
2019-01-02T12:34:23.341Z,630.00
2019-01-02T12:35:23.330Z,562.50
2019-01-02T12:36:23.315Z,624.38
2019-01-02T12:37:23.295Z,551.25
2019-01-02T12:38:23.284Z,405.00
2019-01-02T12:39:23.314Z,483.75
2019-01-02T12:40:23.263Z,410.62
2019-01-02T12:41:23.259Z,410.62
2019-01-02T12:42:23.244Z,258.75
2019-01-02T12:43:23.228Z,140.62
2019-01-02T12:44:23.217Z,292.50
2019-01-02T12:45:23.223Z,196.88
2019-01-02T12:46:23.196Z,213.75
2019-01-02T12:47:23.194Z,230.62
2019-01-02T12:48:23.181Z,118.12
2019-01-02T12:49:23.168Z,376.88
2019-01-02T12:50:23.170Z,275.62
2019-01-02T12:51:23.155Z,247.50
2019-01-02T12:52:23.142Z,208.12
2019-01-02T12:53:23.125Z,202.50
2019-01-02T12:54:23.113Z,303.75
2019-01-02T12:55:23.142Z,253.12
2019-01-02T12:56:23.087Z,241.88
2019-01-02T12:57:23.076Z,157.50
2019-01-02T12:58:23.067Z,140.62
2019-01-02T12:59:23.055Z,168.75
2019-01-02T13:00:23.048Z,151.88
2019-01-02T13:01:23.045Z,236.25
2019-01-02T13:02:23.026Z,225.00
2019-01-02T13:03:23.013Z,230.62